createdAt,value
2023-02-11T00:01:01.576Z,32.54
2023-02-11T00:03:46.591Z,32.23
2023-02-11T00:06:31.704Z,32.28
2023-02-11T00:09:16.616Z,32.54
2023-02-11T00:12:01.414Z,32.59
2023-02-11T00:14:46.410Z,32.72
2023-02-11T00:17:31.184Z,32.91
2023-02-11T00:20:16.058Z,33.39
2023-02-11T00:23:00.772Z,33.47
2023-02-11T00:25:45.552Z,32.36
2023-02-11T00:28:30.285Z,32.60
2023-02-11T00:31:15.232Z,32.70
2023-02-11T00:34:00.321Z,32.10
2023-02-11T00:36:45.031Z,32.59
2023-02-11T00:39:30.170Z,32.98
2023-02-11T00:42:15.284Z,32.37
2023-02-11T00:45:00.098Z,33.00
2023-02-11T00:47:44.846Z,33.13
2023-02-11T00:50:29.528Z,32.46
2023-02-11T00:53:14.321Z,32.40
2023-02-11T00:55:58.988Z,32.21
2023-02-11T00:58:43.753Z,32.94
2023-02-11T01:01:28.575Z,32.87
2023-02-11T01:04:13.428Z,32.91
2023-02-11T01:06:58.298Z,32.39
2023-02-11T01:09:43.137Z,32.26
2023-02-11T01:12:27.762Z,32.21
2023-02-11T01:15:12.611Z,32.51
2023-02-11T01:17:57.320Z,32.75
2023-02-11T01:20:42.073Z,32.86
2023-02-11T01:23:26.682Z,32.75
2023-02-11T01:26:11.436Z,32.85
2023-02-11T01:28:56.167Z,33.24
2023-02-11T01:31:41.076Z,32.68
2023-02-11T01:34:25.881Z,32.61
2023-02-11T01:37:10.588Z,32.70
2023-02-11T01:39:55.334Z,32.93
2023-02-11T01:42:40.002Z,33.02
2023-02-11T01:45:24.802Z,32.96
2023-02-11T01:48:09.569Z,33.47
2023-02-11T01:50:54.493Z,33.08
2023-02-11T01:53:39.292Z,33.40
2023-02-11T01:56:24.106Z,33.66
2023-02-11T01:59:08.744Z,33.34
2023-02-11T02:01:53.502Z,33.11
2023-02-11T02:04:38.134Z,33.61
2023-02-11T02:07:22.855Z,33.60
2023-02-11T02:10:07.729Z,33.07
2023-02-11T02:12:52.478Z,33.71
2023-02-11T02:15:37.152Z,33.46
2023-02-11T02:18:21.915Z,33.29
2023-02-11T02:21:06.827Z,33.34
2023-02-11T02:23:51.524Z,32.93
2023-02-11T02:26:36.301Z,33.66
2023-02-11T02:29:20.990Z,33.61
2023-02-11T02:32:05.897Z,33.71
2023-02-11T02:34:50.690Z,33.49
2023-02-11T02:37:35.439Z,33.88
2023-02-11T02:40:20.124Z,33.10
2023-02-11T02:43:04.882Z,33.16
2023-02-11T02:45:49.967Z,33.02
2023-02-11T02:48:34.812Z,32.64
2023-02-11T02:51:19.534Z,32.69
2023-02-11T02:54:04.150Z,32.29
2023-02-11T02:56:48.756Z,32.32
2023-02-11T02:59:33.420Z,32.43
2023-02-11T03:02:18.424Z,32.47
2023-02-11T03:05:03.186Z,32.93
2023-02-11T03:07:47.873Z,32.83
2023-02-11T03:10:32.710Z,32.56
2023-02-11T03:13:17.542Z,32.31
2023-02-11T03:16:02.380Z,32.06
2023-02-11T03:18:47.858Z,32.09
2023-02-11T03:21:32.925Z,31.53
2023-02-11T03:24:17.713Z,31.81
2023-02-11T03:27:02.391Z,31.73
2023-02-11T03:29:47.282Z,31.97
2023-02-11T03:32:32.094Z,31.96
2023-02-11T03:35:16.896Z,32.08
2023-02-11T03:38:01.618Z,32.41
2023-02-11T03:40:46.374Z,32.39
2023-02-11T03:43:31.044Z,32.87
2023-02-11T03:46:15.924Z,32.88
2023-02-11T03:49:00.619Z,33.07
2023-02-11T03:51:45.382Z,32.62
2023-02-11T03:54:30.107Z,32.77
2023-02-11T03:57:14.928Z,32.74
2023-02-11T03:59:59.774Z,33.19
2023-02-11T04:02:44.509Z,33.42
2023-02-11T04:05:29.411Z,33.10
2023-02-11T04:08:14.055Z,33.05
2023-02-11T04:10:58.805Z,33.13
2023-02-11T04:13:43.512Z,33.15
2023-02-11T04:16:28.240Z,33.71
2023-02-11T04:19:13.328Z,33.19
2023-02-11T04:21:58.360Z,33.05
2023-02-11T04:24:43.000Z,32.52
2023-02-11T04:27:27.756Z,32.55
2023-02-11T04:30:12.566Z,32.34
2023-02-11T04:32:57.166Z,32.66
2023-02-11T04:35:42.063Z,32.19
2023-02-11T04:38:26.702Z,32.58
2023-02-11T04:41:11.686Z,32.86
2023-02-11T04:43:56.358Z,32.17
2023-02-11T04:46:41.053Z,31.89
2023-02-11T04:49:25.772Z,32.34
2023-02-11T04:52:10.523Z,32.56
2023-02-11T04:54:55.228Z,32.39
2023-02-11T04:57:39.968Z,32.67
2023-02-11T05:00:24.681Z,32.36
2023-02-11T05:03:09.400Z,31.91
2023-02-11T05:05:54.235Z,31.94
2023-02-11T05:08:38.936Z,31.80
2023-02-11T05:11:23.671Z,31.77
2023-02-11T05:14:08.328Z,31.67
2023-02-11T05:16:53.037Z,31.79
2023-02-11T05:19:37.677Z,32.07
2023-02-11T05:22:22.400Z,31.52
2023-02-11T05:25:07.196Z,31.67
2023-02-11T05:27:51.997Z,32.11
2023-02-11T05:30:36.823Z,32.31
2023-02-11T05:33:21.566Z,32.91
2023-02-11T05:36:06.516Z,32.95
2023-02-11T05:38:51.172Z,32.74
2023-02-11T05:41:35.989Z,32.75
2023-02-11T05:44:20.714Z,32.68
2023-02-11T05:47:05.497Z,33.02
2023-02-11T05:49:50.111Z,33.16
2023-02-11T05:52:34.867Z,33.18
2023-02-11T05:55:20.069Z,33.01
2023-02-11T05:58:04.960Z,33.15
2023-02-11T06:00:49.817Z,33.55
2023-02-11T06:03:34.665Z,33.67
2023-02-11T06:06:19.402Z,33.39
2023-02-11T06:09:03.990Z,33.14
2023-02-11T06:11:48.843Z,32.54
2023-02-11T06:14:33.576Z,31.96
2023-02-11T06:17:18.331Z,32.43
2023-02-11T06:20:03.093Z,32.68
2023-02-11T06:22:47.945Z,32.76
2023-02-11T06:25:32.607Z,32.76
2023-02-11T06:28:17.345Z,32.95
2023-02-11T06:31:02.200Z,32.76
2023-02-11T06:33:47.397Z,33.42
2023-02-11T06:36:32.239Z,32.95
2023-02-11T06:39:16.900Z,33.04
2023-02-11T06:42:01.694Z,32.81
2023-02-11T06:44:46.506Z,32.84
2023-02-11T06:47:31.285Z,32.63
2023-02-11T06:50:15.941Z,32.77
2023-02-11T06:53:00.734Z,32.35
2023-02-11T06:55:45.581Z,32.12
2023-02-11T06:58:30.456Z,31.86
2023-02-11T07:01:15.166Z,31.54
2023-02-11T07:03:59.962Z,31.52
2023-02-11T07:06:44.638Z,31.53
2023-02-11T07:09:29.281Z,31.95
2023-02-11T07:12:14.128Z,32.25
2023-02-11T07:14:58.836Z,32.09
2023-02-11T07:17:43.615Z,31.93
2023-02-11T07:20:28.157Z,31.73
2023-02-11T07:23:13.001Z,31.70
2023-02-11T07:25:57.559Z,31.01
2023-02-11T07:28:42.470Z,30.81
2023-02-11T07:31:27.315Z,31.05
2023-02-11T07:34:12.488Z,31.36
2023-02-11T07:36:57.344Z,32.07
2023-02-11T07:39:42.096Z,31.31
2023-02-11T07:42:26.996Z,31.00
2023-02-11T07:45:11.742Z,28.83
2023-02-11T07:47:56.682Z,28.37
2023-02-11T07:50:41.344Z,28.76
2023-02-11T07:53:26.072Z,28.20
2023-02-11T07:56:10.873Z,27.77
2023-02-11T07:58:55.607Z,27.87
2023-02-11T08:01:40.419Z,28.35
2023-02-11T08:04:25.079Z,27.40
2023-02-11T08:07:09.902Z,28.11
2023-02-11T08:09:54.595Z,28.08
2023-02-11T08:12:39.457Z,29.31
2023-02-11T08:15:24.075Z,29.20
2023-02-11T08:18:08.742Z,29.28
2023-02-11T08:20:53.413Z,28.93
2023-02-11T08:23:38.174Z,28.65
2023-02-11T08:26:23.402Z,31.48
2023-02-11T08:29:08.121Z,31.30
2023-02-11T08:31:52.944Z,31.31
2023-02-11T08:34:37.522Z,32.36
2023-02-11T08:37:22.249Z,30.74
2023-02-11T08:40:06.949Z,30.76
2023-02-11T08:42:51.834Z,30.21
2023-02-11T08:45:36.509Z,30.04
2023-02-11T08:48:21.394Z,28.76
2023-02-11T08:51:06.024Z,28.18
2023-02-11T08:53:50.869Z,26.82
2023-02-11T08:56:35.664Z,27.77
2023-02-11T08:59:20.313Z,27.42
2023-02-11T09:02:05.167Z,27.34
2023-02-11T09:04:49.845Z,26.82
2023-02-11T09:07:34.578Z,26.03
2023-02-11T09:10:19.223Z,25.92
2023-02-11T09:13:05.194Z,24.80
2023-02-11T09:15:49.758Z,24.56
2023-02-11T09:18:34.517Z,24.24
2023-02-11T09:21:19.248Z,24.84
2023-02-11T09:24:04.090Z,25.02
2023-02-11T09:26:48.919Z,25.32
2023-02-11T09:29:33.598Z,23.13
2023-02-11T09:32:18.451Z,23.84
2023-02-11T09:35:03.558Z,25.01
2023-02-11T09:37:48.384Z,25.44
2023-02-11T09:40:33.071Z,26.99
2023-02-11T09:43:17.837Z,27.35
2023-02-11T09:46:02.743Z,27.25
2023-02-11T09:48:48.064Z,26.84
2023-02-11T09:51:33.037Z,29.09
2023-02-11T09:54:18.123Z,28.48
2023-02-11T09:57:02.986Z,28.91
2023-02-11T09:59:47.638Z,28.13
2023-02-11T10:02:32.418Z,27.23
2023-02-11T10:05:17.106Z,28.17
2023-02-11T10:08:02.049Z,27.99
2023-02-11T10:10:46.781Z,26.67
2023-02-11T10:13:31.634Z,27.28
2023-02-11T10:16:16.266Z,25.75
2023-02-11T10:19:01.129Z,26.59
2023-02-11T10:21:45.852Z,26.58
2023-02-11T10:24:30.625Z,26.29
2023-02-11T10:27:15.265Z,25.56
2023-02-11T10:30:00.028Z,24.58
2023-02-11T10:32:44.753Z,25.50
2023-02-11T10:35:29.693Z,26.79
2023-02-11T10:38:14.645Z,28.25
2023-02-11T10:40:59.233Z,28.09
2023-02-11T10:43:44.202Z,28.58
2023-02-11T10:46:28.945Z,27.37
2023-02-11T10:49:13.669Z,27.20
2023-02-11T10:51:58.445Z,27.55
2023-02-11T10:54:43.366Z,27.29
2023-02-11T10:57:28.135Z,27.13
2023-02-11T11:00:12.774Z,26.86
2023-02-11T11:02:57.691Z,27.37
2023-02-11T11:05:42.346Z,27.22
2023-02-11T11:08:27.194Z,27.95
2023-02-11T11:11:11.864Z,27.63
2023-02-11T11:13:56.654Z,27.23
2023-02-11T11:16:41.250Z,27.21
2023-02-11T11:19:26.123Z,27.55
2023-02-11T11:22:10.966Z,26.86
2023-02-11T11:24:55.715Z,27.49
2023-02-11T11:27:40.408Z,27.82
2023-02-11T11:30:25.018Z,27.64
2023-02-11T11:33:09.925Z,27.07
2023-02-11T11:35:54.616Z,27.24
2023-02-11T11:38:39.284Z,27.38
2023-02-11T11:41:23.981Z,27.47
2023-02-11T11:44:08.804Z,26.49
2023-02-11T11:46:53.408Z,26.10
2023-02-11T11:49:38.123Z,26.28
2023-02-11T11:52:22.834Z,26.30
2023-02-11T11:55:07.597Z,26.01
2023-02-11T11:57:52.332Z,26.17
2023-02-11T12:00:37.043Z,26.35
2023-02-11T12:03:21.948Z,26.75
2023-02-11T12:06:07.187Z,26.38
2023-02-11T12:08:52.023Z,26.20
2023-02-11T12:11:36.685Z,26.54
2023-02-11T12:14:21.632Z,26.57
2023-02-11T12:17:06.364Z,25.93
2023-02-11T12:19:51.241Z,26.66
2023-02-11T12:22:36.080Z,26.36
2023-02-11T12:25:20.972Z,26.72
2023-02-11T12:28:05.985Z,27.57
2023-02-11T12:30:50.960Z,26.32
2023-02-11T12:33:36.021Z,25.64
2023-02-11T12:36:20.759Z,25.69
2023-02-11T12:39:05.586Z,26.24
2023-02-11T12:41:50.184Z,25.52
2023-02-11T12:44:34.971Z,25.60
2023-02-11T12:47:19.724Z,25.22
2023-02-11T12:50:04.440Z,25.59
2023-02-11T12:52:49.258Z,25.58
2023-02-11T12:55:34.086Z,24.90
2023-02-11T12:58:18.903Z,24.90
2023-02-11T13:01:03.583Z,24.93
2023-02-11T13:03:48.514Z,24.31
2023-02-11T13:06:33.060Z,24.48
2023-02-11T13:09:17.791Z,25.61
2023-02-11T13:12:02.625Z,25.39
2023-02-11T13:14:47.475Z,24.61
2023-02-11T13:17:32.228Z,25.58
2023-02-11T13:20:16.956Z,25.75
2023-02-11T13:23:01.780Z,25.36
2023-02-11T13:25:46.640Z,25.34
2023-02-11T13:28:31.619Z,25.06
2023-02-11T13:31:16.900Z,24.90
2023-02-11T13:34:02.079Z,24.32
2023-02-11T13:36:46.822Z,24.32
2023-02-11T13:39:31.461Z,24.55
2023-02-11T13:42:16.180Z,25.01
2023-02-11T13:45:00.969Z,24.27
2023-02-11T13:47:45.803Z,23.09
2023-02-11T13:50:30.502Z,23.84
2023-02-11T13:53:16.071Z,24.26
2023-02-11T13:56:00.829Z,24.32
2023-02-11T13:58:45.723Z,25.79
2023-02-11T14:01:30.523Z,24.92
2023-02-11T14:04:15.221Z,25.69
2023-02-11T14:07:00.098Z,24.49
2023-02-11T14:09:44.960Z,24.92
2023-02-11T14:12:29.751Z,24.90
2023-02-11T14:15:14.505Z,24.56
2023-02-11T14:17:59.281Z,24.72
2023-02-11T14:20:44.148Z,22.82
2023-02-11T14:23:28.832Z,21.87
2023-02-11T14:26:13.655Z,23.62
2023-02-11T14:28:58.628Z,23.41
2023-02-11T14:31:43.321Z,22.77
2023-02-11T14:34:28.535Z,23.47
2023-02-11T14:37:13.069Z,22.76
2023-02-11T14:39:57.965Z,23.29
2023-02-11T14:42:42.693Z,22.97
2023-02-11T14:45:27.997Z,23.17
2023-02-11T14:48:12.810Z,22.55
2023-02-11T14:50:57.611Z,23.73
2023-02-11T14:53:42.445Z,22.49
2023-02-11T14:56:27.149Z,21.58
2023-02-11T14:59:12.012Z,24.42
2023-02-11T15:01:56.919Z,25.09
2023-02-11T15:04:42.091Z,25.01
2023-02-11T15:07:26.854Z,25.20
2023-02-11T15:10:11.755Z,26.15
2023-02-11T15:12:56.516Z,26.01
2023-02-11T15:15:41.289Z,26.07
2023-02-11T15:18:25.922Z,26.27
2023-02-11T15:21:10.792Z,26.79
2023-02-11T15:23:55.644Z,29.04
2023-02-11T15:26:40.317Z,29.32
2023-02-11T15:29:25.167Z,29.34
2023-02-11T15:32:10.002Z,29.47
2023-02-11T15:34:55.238Z,28.98
2023-02-11T15:37:39.978Z,27.99
2023-02-11T15:40:24.707Z,28.76
2023-02-11T15:43:09.681Z,28.15
2023-02-11T15:45:54.369Z,28.91
2023-02-11T15:48:39.118Z,29.35
2023-02-11T15:51:23.803Z,27.50
2023-02-11T15:54:08.631Z,25.14
2023-02-11T15:56:53.223Z,26.39
2023-02-11T15:59:37.992Z,29.65
2023-02-11T16:02:22.816Z,30.18
2023-02-11T16:05:07.545Z,29.53
2023-02-11T16:07:52.533Z,30.59
2023-02-11T16:10:37.221Z,31.81
2023-02-11T16:13:21.973Z,33.09
2023-02-11T16:16:06.697Z,32.84
2023-02-11T16:19:03.431Z,30.51
2023-02-11T16:21:49.402Z,30.58
2023-02-11T16:24:34.150Z,31.66
2023-02-11T16:27:18.819Z,32.14
2023-02-11T16:30:03.601Z,29.63
2023-02-11T16:32:48.210Z,31.01
2023-02-11T16:35:32.931Z,30.84
2023-02-11T16:38:17.559Z,31.82
2023-02-11T16:41:02.272Z,33.03
2023-02-11T16:43:47.088Z,33.83
2023-02-11T16:46:32.342Z,35.20
2023-02-11T16:49:17.156Z,34.51
2023-02-11T16:52:01.945Z,35.39
2023-02-11T16:54:46.780Z,35.47
2023-02-11T16:57:31.589Z,34.86
2023-02-11T17:00:16.486Z,34.43
2023-02-11T17:03:01.049Z,34.49
2023-02-11T17:05:55.034Z,33.41
2023-02-11T17:08:40.683Z,33.10
2023-02-11T17:11:25.534Z,34.53
2023-02-11T17:14:10.427Z,37.37
2023-02-11T17:16:55.256Z,37.19
2023-02-11T17:19:39.845Z,36.29
2023-02-11T17:22:24.660Z,35.91
2023-02-11T17:25:09.499Z,35.76
2023-02-11T17:27:54.470Z,34.92
2023-02-11T17:30:39.191Z,34.67
2023-02-11T17:33:23.953Z,34.82
2023-02-11T17:36:08.645Z,36.47
2023-02-11T17:38:53.415Z,36.72
2023-02-11T17:41:38.334Z,36.68
2023-02-11T17:44:23.053Z,35.51
2023-02-11T17:47:07.921Z,35.08
2023-02-11T17:49:52.695Z,35.63
2023-02-11T17:52:37.392Z,35.03
2023-02-11T17:55:22.325Z,35.86
2023-02-11T17:58:07.172Z,34.06
2023-02-11T18:00:51.881Z,33.48
2023-02-11T18:03:36.570Z,33.38
2023-02-11T18:06:21.398Z,34.18
2023-02-11T18:09:06.260Z,33.76
2023-02-11T18:11:50.973Z,35.74
2023-02-11T18:14:35.668Z,35.36
2023-02-11T18:17:20.513Z,34.98
2023-02-11T18:20:05.231Z,35.54
2023-02-11T18:22:50.149Z,34.55
2023-02-11T18:25:34.737Z,34.88
2023-02-11T18:28:19.527Z,34.79
2023-02-11T18:31:04.413Z,34.71
2023-02-11T18:33:49.192Z,34.28
2023-02-11T18:36:34.114Z,34.73
2023-02-11T18:39:18.784Z,35.01
2023-02-11T18:42:03.686Z,34.62
2023-02-11T18:44:48.411Z,34.31
2023-02-11T18:47:33.283Z,34.43
2023-02-11T18:50:18.044Z,34.69
2023-02-11T18:53:02.814Z,35.41
2023-02-11T18:55:47.654Z,35.87
2023-02-11T18:58:32.611Z,35.09
2023-02-11T19:01:17.779Z,35.11
2023-02-11T19:04:02.844Z,35.76
2023-02-11T19:06:48.011Z,36.34
2023-02-11T19:09:32.951Z,35.94
2023-02-11T19:12:17.729Z,35.01
2023-02-11T19:15:02.442Z,35.78
2023-02-11T19:17:47.407Z,36.10
2023-02-11T19:20:32.006Z,36.12
2023-02-11T19:23:16.687Z,35.44
2023-02-11T19:26:01.263Z,35.81
2023-02-11T19:28:46.019Z,36.55
2023-02-11T19:31:30.959Z,36.48
2023-02-11T19:34:16.096Z,36.31
2023-02-11T19:37:00.942Z,36.12
2023-02-11T19:39:45.568Z,36.61
2023-02-11T19:42:30.368Z,35.29
2023-02-11T19:45:15.149Z,36.14
2023-02-11T19:47:59.953Z,35.05
2023-02-11T19:50:45.115Z,34.98
2023-02-11T19:53:29.977Z,35.83
2023-02-11T19:56:14.714Z,36.08
2023-02-11T19:58:59.673Z,35.64
2023-02-11T20:01:44.634Z,35.29
2023-02-11T20:04:29.337Z,35.22
2023-02-11T20:07:14.072Z,35.44
2023-02-11T20:09:58.749Z,36.27
2023-02-11T20:12:43.707Z,36.94
2023-02-11T20:15:28.655Z,36.93
2023-02-11T20:18:13.271Z,36.64
2023-02-11T20:20:57.922Z,36.48
2023-02-11T20:23:42.600Z,35.96
2023-02-11T20:26:27.362Z,36.46
2023-02-11T20:29:12.053Z,36.49
2023-02-11T20:31:57.107Z,36.20
2023-02-11T20:34:42.218Z,36.50
2023-02-11T20:37:26.930Z,36.17
2023-02-11T20:40:11.576Z,35.98
2023-02-11T20:42:56.493Z,35.72
2023-02-11T20:45:41.131Z,35.16
2023-02-11T20:48:25.729Z,34.44
2023-02-11T20:51:10.496Z,34.97
2023-02-11T20:53:55.309Z,35.67
2023-02-11T20:56:40.178Z,37.19
2023-02-11T20:59:24.951Z,37.21
2023-02-11T21:02:10.232Z,37.97
2023-02-11T21:04:55.419Z,37.55
2023-02-11T21:07:40.448Z,36.98
2023-02-11T21:10:25.352Z,36.88
2023-02-11T21:13:10.055Z,36.31
2023-02-11T21:15:55.154Z,37.41
2023-02-11T21:18:40.562Z,37.36
2023-02-11T21:21:25.291Z,37.55
2023-02-11T21:24:10.055Z,37.45
2023-02-11T21:26:55.165Z,37.33
2023-02-11T21:29:52.799Z,37.14
2023-02-11T21:32:39.047Z,37.46
2023-02-11T21:35:23.729Z,37.17
2023-02-11T21:38:08.471Z,37.60
2023-02-11T21:40:53.388Z,37.11
2023-02-11T21:43:38.626Z,38.60
2023-02-11T21:46:23.572Z,39.22
2023-02-11T21:49:08.648Z,39.26
2023-02-11T21:51:53.370Z,38.80
2023-02-11T21:54:38.043Z,39.32
2023-02-11T21:57:22.909Z,38.76
2023-02-11T22:00:07.793Z,37.82
2023-02-11T22:02:52.531Z,38.26
2023-02-11T22:05:37.198Z,38.08
2023-02-11T22:08:22.167Z,38.07
2023-02-11T22:11:07.370Z,38.74
2023-02-11T22:13:52.129Z,38.24
2023-02-11T22:16:37.070Z,38.07
2023-02-11T22:19:21.846Z,37.47
2023-02-11T22:22:06.513Z,37.52
2023-02-11T22:24:51.201Z,38.17
2023-02-11T22:27:36.085Z,38.13
2023-02-11T22:30:20.880Z,37.74
2023-02-11T22:33:05.763Z,37.54
2023-02-11T22:35:50.454Z,37.96
2023-02-11T22:38:35.291Z,38.30
2023-02-11T22:41:19.996Z,37.66
2023-02-11T22:44:04.855Z,38.03
2023-02-11T22:46:49.610Z,37.72
2023-02-11T22:49:34.305Z,37.93
2023-02-11T22:52:21.462Z,37.58
2023-02-11T22:55:06.263Z,37.57
2023-02-11T22:57:51.200Z,38.40
2023-02-11T23:00:35.927Z,38.92
2023-02-11T23:03:20.746Z,38.66
2023-02-11T23:06:05.411Z,38.83
2023-02-11T23:08:50.215Z,38.60
2023-02-11T23:11:34.973Z,38.78
2023-02-11T23:14:19.666Z,38.89
2023-02-11T23:17:04.402Z,39.75
2023-02-11T23:19:49.276Z,39.20
2023-02-11T23:22:34.028Z,39.67
2023-02-11T23:25:18.793Z,38.68
2023-02-11T23:28:03.724Z,38.38
2023-02-11T23:30:48.446Z,38.86
2023-02-11T23:33:33.334Z,38.79
2023-02-11T23:36:18.063Z,39.24
2023-02-11T23:39:02.871Z,39.02
2023-02-11T23:41:47.655Z,38.83
2023-02-11T23:44:32.370Z,38.67
2023-02-11T23:47:17.113Z,38.53
2023-02-11T23:50:01.839Z,38.95
2023-02-11T23:52:46.702Z,38.47
2023-02-11T23:55:31.465Z,38.27
2023-02-11T23:58:16.225Z,39.43
